Time;durP1;ratioP1;P1;durP2;ratioP2;P2;SDS_P1;SDS_P2;PMS_P1;PMS_P2;Temp;Humidity;BMP_temperature;BMP_pressure;BME280_temperature;BME280_humidity;BME280_pressure;Samples;Min_cycle;Max_cycle;Signal;HPM_P1;HPM_P2
2023/09/10 00:00:49;0.00;0.00;0.62;0.00;0.00;0.62;12.77;11.67;;;30.90;29.30;;;;;;2252214;61;20359;-61
2023/09/10 00:03:34;0.00;0.00;0.62;0.00;0.00;0.62;14.03;12.80;;;30.90;29.30;;;;;;2251835;61;20379;-60
2023/09/10 00:06:19;0.00;0.00;0.62;0.00;0.00;0.62;13.83;12.53;;;30.90;29.30;;;;;;2251964;61;20912;-61
2023/09/10 00:09:03;0.00;0.00;0.62;0.00;0.00;0.62;15.60;14.20;;;30.90;29.30;;;;;;2252162;61;20465;-63
2023/09/10 00:11:48;0.00;0.00;0.62;0.00;0.00;0.62;15.37;13.90;;;30.90;29.30;;;;;;2251923;61;20943;-60
2023/09/10 00:14:33;0.00;0.00;0.62;0.00;0.00;0.62;16.17;14.67;;;30.90;29.20;;;;;;2252197;61;20463;-60
2023/09/10 00:17:19;0.00;0.00;0.62;0.00;0.00;0.62;16.60;14.90;;;30.90;29.20;;;;;;2251946;61;20386;-62
2023/09/10 00:20:06;0.00;0.00;0.62;0.00;0.00;0.62;15.60;14.00;;;30.90;29.20;;;;;;2252098;61;20371;-59
2023/09/10 00:22:51;0.00;0.00;0.62;0.00;0.00;0.62;14.80;13.50;;;30.90;29.20;;;;;;2252157;61;20376;-61
2023/09/10 00:25:35;0.00;0.00;0.62;0.00;0.00;0.62;15.13;13.60;;;30.90;29.20;;;;;;2251658;61;20406;-59
2023/09/10 00:28:20;0.00;0.00;0.62;0.00;0.00;0.62;15.70;14.30;;;30.90;29.20;;;;;;2251933;61;20437;-62
2023/09/10 00:31:04;0.00;0.00;0.62;0.00;0.00;0.62;14.53;13.03;;;30.90;29.20;;;;;;2252023;61;20406;-61
2023/09/10 00:33:51;0.00;0.00;0.62;0.00;0.00;0.62;14.67;13.17;;;30.90;29.20;;;;;;2254114;61;20788;-64
2023/09/10 00:36:35;0.00;0.00;0.62;0.00;0.00;0.62;15.43;14.00;;;30.90;29.20;;;;;;2251856;61;20722;-62
2023/09/10 00:39:20;0.00;0.00;0.62;0.00;0.00;0.62;16.10;14.70;;;30.90;29.20;;;;;;2254610;61;20422;-61
2023/09/10 00:42:06;0.00;0.00;0.62;0.00;0.00;0.62;15.03;13.50;;;30.90;29.20;;;;;;2251833;61;20896;-63
2023/09/10 00:44:50;0.00;0.00;0.62;0.00;0.00;0.62;13.10;11.90;;;30.90;29.20;;;;;;2252274;61;20413;-62
2023/09/10 00:47:36;0.00;0.00;0.62;0.00;0.00;0.62;16.07;13.90;;;30.90;29.20;;;;;;2251367;61;20386;-61
2023/09/10 00:50:23;0.00;0.00;0.62;0.00;0.00;0.62;14.10;12.70;;;30.90;29.20;;;;;;2251526;61;20990;-68
2023/09/10 00:53:08;0.00;0.00;0.62;0.00;0.00;0.62;13.20;12.00;;;30.80;29.10;;;;;;2252237;61;20911;-62
2023/09/10 00:55:54;0.00;0.00;0.62;0.00;0.00;0.62;13.70;12.40;;;30.80;29.10;;;;;;2252027;61;20417;-60
2023/09/10 00:58:39;0.00;0.00;0.62;0.00;0.00;0.62;12.40;11.37;;;30.80;29.10;;;;;;2254390;61;20810;-59
2023/09/10 01:01:24;0.00;0.00;0.62;0.00;0.00;0.62;13.30;12.10;;;30.80;29.10;;;;;;2252061;61;20442;-60
2023/09/10 01:04:09;0.00;0.00;0.62;0.00;0.00;0.62;12.40;10.50;;;30.70;29.10;;;;;;2251940;61;20363;-61
2023/09/10 01:06:55;0.00;0.00;0.62;0.00;0.00;0.62;10.40;9.40;;;30.70;29.20;;;;;;2254023;61;20793;-62
2023/09/10 01:09:40;0.00;0.00;0.62;0.00;0.00;0.62;12.70;10.53;;;30.60;29.20;;;;;;2251656;61;20429;-60
2023/09/10 01:12:32;0.00;0.00;0.62;0.00;0.00;0.62;11.43;10.23;;;30.60;29.20;;;;;;2252191;61;20406;-61
2023/09/10 01:15:27;0.00;0.00;0.62;0.00;0.00;0.62;10.00;9.20;;;30.50;29.30;;;;;;2252203;61;20449;-61
2023/09/10 01:18:18;0.00;0.00;0.62;0.00;0.00;0.62;11.80;10.60;;;30.50;29.40;;;;;;2251586;61;20382;-59
2023/09/10 01:21:31;0.00;0.00;0.62;0.00;0.00;0.62;11.47;10.37;;;30.40;29.40;;;;;;2254316;61;20455;-61
2023/09/10 01:24:27;0.00;0.00;0.62;0.00;0.00;0.62;11.60;10.40;;;30.40;29.40;;;;;;2251725;61;20447;-57
2023/09/10 01:27:14;0.00;0.00;0.62;0.00;0.00;0.62;11.13;10.13;;;30.30;29.40;;;;;;2251296;61;20394;-60
2023/09/10 01:29:59;0.00;0.00;0.62;0.00;0.00;0.62;10.60;9.50;;;30.30;29.40;;;;;;2254238;61;20418;-60
2023/09/10 01:32:51;0.00;0.00;0.62;0.00;0.00;0.62;10.40;9.33;;;30.20;29.50;;;;;;2251455;61;20374;-61
2023/09/10 01:35:45;0.00;0.00;0.62;0.00;0.00;0.62;10.47;9.47;;;30.20;29.60;;;;;;2249632;61;20503;-59
2023/09/10 01:38:41;0.00;0.00;0.62;0.00;0.00;0.62;11.43;9.67;;;30.10;30.00;;;;;;2271303;58;20402;-58
2023/09/10 01:41:26;0.00;0.00;0.62;0.00;0.00;0.62;8.40;7.60;;;30.10;29.70;;;;;;2252625;61;20491;-60
2023/09/10 01:44:14;0.00;0.00;0.62;0.00;0.00;0.62;10.57;9.43;;;30.00;29.60;;;;;;2252810;61;20370;-59
2023/09/10 01:47:00;0.00;0.00;0.62;0.00;0.00;0.62;9.60;8.70;;;30.00;29.70;;;;;;2251994;61;20975;-60
2023/09/10 01:49:45;0.00;0.00;0.62;0.00;0.00;0.62;10.27;9.30;;;30.00;29.80;;;;;;2252005;61;20390;-60
2023/09/10 01:52:30;0.00;0.00;0.62;0.00;0.00;0.62;9.33;8.53;;;29.90;29.80;;;;;;2252653;61;20988;-63
2023/09/10 01:55:15;0.00;0.00;0.62;0.00;0.00;0.62;11.10;10.03;;;29.90;29.80;;;;;;2251797;61;20374;-63
2023/09/10 01:57:59;0.00;0.00;0.62;0.00;0.00;0.62;9.43;8.40;;;29.90;29.90;;;;;;2252183;61;20486;-61
2023/09/10 02:00:45;0.00;0.00;0.62;0.00;0.00;0.62;9.70;8.87;;;29.90;29.90;;;;;;2252239;61;20366;-61
2023/09/10 02:03:31;0.00;0.00;0.62;0.00;0.00;0.62;11.97;9.60;;;29.90;29.90;;;;;;2252739;61;20386;-62
2023/09/10 02:06:15;0.00;0.00;0.62;0.00;0.00;0.62;9.90;8.97;;;29.90;29.90;;;;;;2252482;61;20363;-60
2023/09/10 02:08:59;0.00;0.00;0.62;0.00;0.00;0.62;10.63;9.63;;;29.90;29.90;;;;;;2251952;61;20362;-61
2023/09/10 02:11:44;0.00;0.00;0.62;0.00;0.00;0.62;10.90;9.90;;;29.90;29.90;;;;;;2252374;61;20414;-62
2023/09/10 02:14:29;0.00;0.00;0.62;0.00;0.00;0.62;10.27;9.37;;;30.00;30.40;;;;;;2252550;61;20362;-61
2023/09/10 02:17:15;0.00;0.00;0.62;0.00;0.00;0.62;10.57;9.63;;;30.00;29.90;;;;;;2251462;61;20382;-59
2023/09/10 02:20:00;0.00;0.00;0.62;0.00;0.00;0.62;10.93;9.70;;;30.00;29.80;;;;;;2252608;61;20418;-63
2023/09/10 02:22:45;0.00;0.00;0.62;0.00;0.00;0.62;10.20;9.40;;;30.00;29.80;;;;;;2252875;61;20374;-60
2023/09/10 02:25:30;0.00;0.00;0.62;0.00;0.00;0.62;11.80;10.60;;;30.00;29.80;;;;;;2252214;61;20503;-61
2023/09/10 02:28:15;0.00;0.00;0.62;0.00;0.00;0.62;10.70;9.70;;;30.00;29.80;;;;;;2251772;61;20887;-61
2023/09/10 02:31:05;0.00;0.00;0.62;0.00;0.00;0.62;9.37;8.47;;;30.00;29.80;;;;;;2252161;61;20437;-59
2023/09/10 02:33:53;0.00;0.00;0.62;0.00;0.00;0.62;11.80;10.70;;;30.10;29.80;;;;;;2252261;61;20907;-61
2023/09/10 02:36:38;0.00;0.00;0.62;0.00;0.00;0.62;10.37;9.40;;;30.10;29.80;;;;;;2254423;61;20463;-58
2023/09/10 02:39:22;0.00;0.00;0.62;0.00;0.00;0.62;10.80;8.77;;;30.10;29.80;;;;;;2252337;61;20417;-61
2023/09/10 02:42:07;0.00;0.00;0.62;0.00;0.00;0.62;10.43;9.50;;;30.10;29.80;;;;;;2251921;61;20374;-58
2023/09/10 02:44:51;0.00;0.00;0.62;0.00;0.00;0.62;9.57;8.67;;;30.10;29.80;;;;;;2251895;61;20417;-58
2023/09/10 02:47:36;0.00;0.00;0.62;0.00;0.00;0.62;11.40;9.10;;;30.10;29.80;;;;;;2251833;61;20473;-59
2023/09/10 02:50:22;0.00;0.00;0.62;0.00;0.00;0.62;8.97;8.17;;;30.10;29.90;;;;;;2251656;61;20395;-59
2023/09/10 02:53:06;0.00;0.00;0.62;0.00;0.00;0.62;8.33;7.63;;;30.10;29.90;;;;;;2252054;61;20475;-60
2023/09/10 02:55:59;0.00;0.00;0.62;0.00;0.00;0.62;8.77;7.97;;;30.00;29.90;;;;;;2252102;61;20417;-61
2023/09/10 02:58:43;0.00;0.00;0.62;0.00;0.00;0.62;8.90;8.10;;;30.00;30.00;;;;;;2252284;61;20827;-61
2023/09/10 03:01:28;0.00;0.00;0.62;0.00;0.00;0.62;9.00;8.10;;;30.00;30.10;;;;;;2251858;61;20831;-61
2023/09/10 03:04:14;0.00;0.00;0.62;0.00;0.00;0.62;9.33;8.23;;;30.00;30.30;;;;;;2251970;61;20889;-60
2023/09/10 03:07:01;0.00;0.00;0.62;0.00;0.00;0.62;8.57;7.87;;;29.90;30.40;;;;;;2251356;61;20386;-62
2023/09/10 03:09:46;0.00;0.00;0.62;0.00;0.00;0.62;11.67;10.57;;;29.90;30.60;;;;;;2251531;61;20425;-60
2023/09/10 03:12:31;0.00;0.00;0.62;0.00;0.00;0.62;10.63;9.70;;;29.90;30.80;;;;;;2251818;61;20394;-59
2023/09/10 03:15:17;0.00;0.00;0.62;0.00;0.00;0.62;10.77;9.77;;;29.90;31.00;;;;;;2251652;61;20370;-58
2023/09/10 03:18:02;0.00;0.00;0.62;0.00;0.00;0.62;12.73;10.57;;;29.80;31.10;;;;;;2251438;61;20387;-57
2023/09/10 03:20:47;0.00;0.00;0.62;0.00;0.00;0.62;9.63;8.77;;;29.80;31.30;;;;;;2251825;61;20366;-61
2023/09/10 03:23:33;0.00;0.00;0.62;0.00;0.00;0.62;11.97;10.87;;;29.80;31.50;;;;;;2251556;61;20398;-61
2023/09/10 03:26:18;0.00;0.00;0.62;0.00;0.00;0.62;10.50;9.50;;;29.70;31.50;;;;;;2251924;61;20775;-59
2023/09/10 03:29:04;0.00;0.00;0.62;0.00;0.00;0.62;12.07;10.90;;;29.70;31.70;;;;;;2251807;61;20973;-58
2023/09/10 03:31:49;0.00;0.00;0.62;0.00;0.00;0.62;13.30;11.47;;;29.70;31.80;;;;;;2251560;61;20654;-62
2023/09/10 03:34:34;0.00;0.00;0.62;0.00;0.00;0.62;12.67;8.97;;;29.70;32.00;;;;;;2252069;61;20366;-61
2023/09/10 03:37:19;0.00;0.00;0.62;0.00;0.00;0.62;11.10;10.10;;;29.60;31.90;;;;;;2250709;61;20437;-62
2023/09/10 03:40:07;0.00;0.00;0.62;0.00;0.00;0.62;12.07;10.70;;;29.60;31.90;;;;;;2254693;61;20358;-59
2023/09/10 03:42:53;0.00;0.00;0.62;0.00;0.00;0.62;11.97;10.87;;;29.60;32.10;;;;;;2254738;61;20386;-61
2023/09/10 03:45:38;0.00;0.00;0.62;0.00;0.00;0.62;13.67;12.50;;;29.50;32.00;;;;;;2251512;61;20362;-59
2023/09/10 03:48:22;0.00;0.00;0.62;0.00;0.00;0.62;15.23;13.77;;;29.50;32.20;;;;;;2252098;61;20434;-61
2023/09/10 03:51:07;0.00;0.00;0.62;0.00;0.00;0.62;14.67;13.17;;;29.50;32.40;;;;;;2254598;61;20395;-58
2023/09/10 03:53:51;0.00;0.00;0.62;0.00;0.00;0.62;14.00;12.73;;;29.50;32.60;;;;;;2251883;61;20951;-59
2023/09/10 03:56:38;0.00;0.00;0.62;0.00;0.00;0.62;14.30;12.90;;;29.40;32.80;;;;;;2254039;61;20382;-60
2023/09/10 03:59:23;0.00;0.00;0.62;0.00;0.00;0.62;11.67;10.67;;;29.40;33.70;;;;;;2252435;61;20371;-61
2023/09/10 04:02:08;0.00;0.00;0.62;0.00;0.00;0.62;13.40;12.20;;;29.40;33.00;;;;;;2252329;61;20390;-60
2023/09/10 04:04:53;0.00;0.00;0.62;0.00;0.00;0.62;14.40;13.10;;;29.30;33.00;;;;;;2252410;61;20378;-60
2023/09/10 04:07:37;0.00;0.00;0.62;0.00;0.00;0.62;13.10;11.93;;;29.30;33.00;;;;;;2253566;61;20915;-60
2023/09/10 04:10:22;0.00;0.00;0.62;0.00;0.00;0.62;15.53;14.13;;;29.30;33.00;;;;;;2251838;61;20386;-62
2023/09/10 04:13:08;0.00;0.00;0.62;0.00;0.00;0.62;15.67;14.10;;;29.20;32.90;;;;;;2252208;61;20456;-58
2023/09/10 04:15:53;0.00;0.00;0.62;0.00;0.00;0.62;15.17;13.87;;;29.20;33.10;;;;;;2254182;61;20379;-60
2023/09/10 04:18:37;0.00;0.00;0.62;0.00;0.00;0.62;15.30;13.90;;;29.20;33.30;;;;;;2251515;61;20771;-59
2023/09/10 04:21:22;0.00;0.00;0.62;0.00;0.00;0.62;13.87;12.67;;;29.10;33.40;;;;;;2254545;61;20410;-59
2023/09/10 04:24:06;0.00;0.00;0.62;0.00;0.00;0.62;15.13;12.93;;;29.10;33.50;;;;;;2251959;61;20442;-62
2023/09/10 04:26:51;0.00;0.00;0.62;0.00;0.00;0.62;14.17;12.77;;;29.10;33.60;;;;;;2251874;61;21015;-60
2023/09/10 04:29:37;0.00;0.00;0.62;0.00;0.00;0.62;14.77;12.07;;;29.00;33.50;;;;;;2254176;61;20358;-61
2023/09/10 04:32:22;0.00;0.00;0.62;0.00;0.00;0.62;13.07;11.77;;;29.00;33.40;;;;;;2254564;61;20375;-59
2023/09/10 04:35:08;0.00;0.00;0.62;0.00;0.00;0.62;16.97;15.33;;;29.00;33.50;;;;;;2252236;61;20367;-60
2023/09/10 04:37:53;0.00;0.00;0.62;0.00;0.00;0.62;16.30;14.80;;;29.00;33.60;;;;;;2251441;61;20390;-61
2023/09/10 04:40:39;0.00;0.00;0.62;0.00;0.00;0.62;12.83;11.73;;;29.00;33.60;;;;;;2254581;61;20414;-62
2023/09/10 04:43:24;0.00;0.00;0.62;0.00;0.00;0.62;14.30;12.90;;;29.00;33.70;;;;;;2254524;61;20453;-61
2023/09/10 04:46:10;0.00;0.00;0.62;0.00;0.00;0.62;16.00;14.50;;;29.00;33.70;;;;;;2254235;61;20390;-60
2023/09/10 04:48:59;0.00;0.00;0.62;0.00;0.00;0.62;13.40;12.20;;;28.90;33.80;;;;;;2254246;61;20379;-61
2023/09/10 04:51:44;0.00;0.00;0.62;0.00;0.00;0.62;13.43;12.13;;;28.90;33.80;;;;;;2251793;61;20855;-60
2023/09/10 04:54:28;0.00;0.00;0.62;0.00;0.00;0.62;12.93;11.73;;;28.90;33.90;;;;;;2254512;61;20370;-60
2023/09/10 04:57:13;0.00;0.00;0.62;0.00;0.00;0.62;16.27;14.73;;;28.90;33.90;;;;;;2251747;61;20903;-58
2023/09/10 04:59:58;0.00;0.00;0.62;0.00;0.00;0.62;12.10;10.97;;;28.90;33.90;;;;;;2254148;61;20451;-61
2023/09/10 05:02:45;0.00;0.00;0.62;0.00;0.00;0.62;13.90;12.70;;;28.90;34.00;;;;;;2254635;61;20832;-60
2023/09/10 05:05:29;0.00;0.00;0.62;0.00;0.00;0.62;17.30;13.97;;;28.80;33.90;;;;;;2251948;61;20370;-58
2023/09/10 05:08:14;0.00;0.00;0.62;0.00;0.00;0.62;13.37;12.07;;;28.90;34.00;;;;;;2251431;61;20449;-59
2023/09/10 05:10:59;0.00;0.00;0.62;0.00;0.00;0.62;12.93;11.73;;;28.90;34.10;;;;;;2255120;61;20444;-58
2023/09/10 05:13:44;0.00;0.00;0.62;0.00;0.00;0.62;11.80;10.70;;;28.80;34.10;;;;;;2254729;61;20470;-60
2023/09/10 05:16:29;0.00;0.00;0.62;0.00;0.00;0.62;11.57;10.47;;;28.80;34.10;;;;;;2252810;61;20530;-60
2023/09/10 05:19:15;0.00;0.00;0.62;0.00;0.00;0.62;13.20;11.90;;;28.80;34.10;;;;;;2252969;61;20362;-58
2023/09/10 05:22:00;0.00;0.00;0.62;0.00;0.00;0.62;12.57;11.47;;;28.80;34.00;;;;;;2251995;61;20425;-60
2023/09/10 05:24:45;0.00;0.00;0.62;0.00;0.00;0.62;11.90;10.90;;;28.80;34.00;;;;;;2255137;61;20399;-62
2023/09/10 05:27:29;0.00;0.00;0.62;0.00;0.00;0.62;11.70;10.57;;;28.90;34.00;;;;;;2254730;61;20385;-62
2023/09/10 05:30:14;0.00;0.00;0.62;0.00;0.00;0.62;11.37;10.30;;;28.90;34.00;;;;;;2254765;61;20806;-61
2023/09/10 05:32:59;0.00;0.00;0.62;0.00;0.00;0.62;15.13;13.83;;;28.90;34.00;;;;;;2252658;61;20809;-60
2023/09/10 05:35:55;0.00;0.00;0.62;0.00;0.00;0.62;14.80;13.40;;;28.80;34.10;;;;;;2249057;61;20366;-61
2023/09/10 05:38:40;0.00;0.00;0.62;0.00;0.00;0.62;15.47;14.03;;;28.90;34.20;;;;;;2251804;61;20364;-61
2023/09/10 05:41:25;0.00;0.00;0.62;0.00;0.00;0.62;12.23;10.93;;;28.80;34.20;;;;;;2254862;61;20374;-59
2023/09/10 05:44:09;0.00;0.00;0.62;0.00;0.00;0.62;14.07;12.73;;;28.80;34.20;;;;;;2254695;61;20370;-59
2023/09/10 05:46:53;0.00;0.00;0.62;0.00;0.00;0.62;14.43;12.93;;;28.80;34.30;;;;;;2252418;61;20478;-57
2023/09/10 05:49:38;0.00;0.00;0.62;0.00;0.00;0.62;16.40;14.90;;;28.80;34.40;;;;;;2255139;61;20455;-59
2023/09/10 05:52:24;0.00;0.00;0.62;0.00;0.00;0.62;16.57;15.07;;;28.80;34.50;;;;;;2252293;61;20425;-62
2023/09/10 05:55:09;0.00;0.00;0.62;0.00;0.00;0.62;17.33;15.83;;;28.80;34.50;;;;;;2252392;61;20858;-60
2023/09/10 05:57:54;0.00;0.00;0.62;0.00;0.00;0.62;15.53;13.20;;;28.70;34.60;;;;;;2251346;61;20382;-62
2023/09/10 06:00:39;0.00;0.00;0.62;0.00;0.00;0.62;13.97;12.77;;;28.70;34.60;;;;;;2254986;61;20359;-60
2023/09/10 06:03:25;0.00;0.00;0.62;0.00;0.00;0.62;13.60;12.40;;;28.70;34.70;;;;;;2254779;61;20362;-58
2023/09/10 06:06:09;0.00;0.00;0.62;0.00;0.00;0.62;18.37;16.57;;;28.70;34.70;;;;;;2251876;61;20880;-59
2023/09/10 06:08:55;0.00;0.00;0.62;0.00;0.00;0.62;15.07;13.60;;;28.70;34.80;;;;;;2251483;61;20367;-56
2023/09/10 06:11:40;0.00;0.00;0.62;0.00;0.00;0.62;16.10;14.43;;;28.70;34.80;;;;;;2252356;61;20498;-59
2023/09/10 06:14:25;0.00;0.00;0.62;0.00;0.00;0.62;13.90;12.60;;;28.70;34.90;;;;;;2251794;61;20896;-57
2023/09/10 06:17:09;0.00;0.00;0.62;0.00;0.00;0.62;16.63;15.10;;;28.60;34.90;;;;;;2251834;61;20385;-60
2023/09/10 06:19:54;0.00;0.00;0.62;0.00;0.00;0.62;14.90;13.50;;;28.60;35.00;;;;;;2254885;61;20363;-59
2023/09/10 06:22:38;0.00;0.00;0.62;0.00;0.00;0.62;13.83;12.63;;;28.70;35.10;;;;;;2255097;61;20373;-62
2023/09/10 06:25:24;0.00;0.00;0.62;0.00;0.00;0.62;16.57;14.97;;;28.60;35.00;;;;;;2254837;61;20456;-59
2023/09/10 06:28:09;0.00;0.00;0.62;0.00;0.00;0.62;16.93;15.23;;;28.60;35.10;;;;;;2254163;61;20640;-57
2023/09/10 06:30:54;0.00;0.00;0.62;0.00;0.00;0.62;13.80;12.50;;;28.60;35.30;;;;;;2252618;61;20398;-61
2023/09/10 06:33:38;0.00;0.00;0.62;0.00;0.00;0.62;14.00;12.50;;;28.60;35.30;;;;;;2252172;61;20458;-59
2023/09/10 06:36:23;0.00;0.00;0.62;0.00;0.00;0.62;15.10;13.60;;;28.60;35.30;;;;;;2252159;61;20390;-60
2023/09/10 06:39:07;0.00;0.00;0.62;0.00;0.00;0.62;12.13;11.13;;;28.60;35.30;;;;;;2254703;61;20363;-59
2023/09/10 06:41:54;0.00;0.00;0.62;0.00;0.00;0.62;11.93;10.80;;;28.60;35.30;;;;;;2251966;61;20902;-58
2023/09/10 06:44:44;0.00;0.00;0.62;0.00;0.00;0.62;10.50;9.70;;;28.60;35.30;;;;;;2254829;61;20498;-60
2023/09/10 06:47:28;0.00;0.00;0.62;0.00;0.00;0.62;10.20;9.30;;;28.70;35.30;;;;;;2252210;61;20474;-60
2023/09/10 06:50:13;0.00;0.00;0.62;0.00;0.00;0.62;12.80;11.60;;;28.70;35.20;;;;;;2252319;61;20410;-60
2023/09/10 06:52:57;0.00;0.00;0.62;0.00;0.00;0.62;12.30;11.10;;;28.70;35.20;;;;;;2252413;61;20362;-59
2023/09/10 06:55:42;0.00;0.00;0.62;0.00;0.00;0.62;18.70;17.00;;;28.70;35.20;;;;;;2252581;61;20381;-60
2023/09/10 06:58:28;0.00;0.00;0.62;0.00;0.00;0.62;15.37;13.90;;;28.70;35.20;;;;;;2251667;61;20410;-60
2023/09/10 07:01:18;0.00;0.00;0.62;0.00;0.00;0.62;18.00;16.40;;;28.80;35.40;;;;;;2252587;61;20940;-62
2023/09/10 07:04:16;0.00;0.00;0.62;0.00;0.00;0.62;16.53;14.83;;;28.80;35.40;;;;;;2252521;61;20359;-64
2023/09/10 07:07:01;0.00;0.00;0.62;0.00;0.00;0.62;17.67;16.03;;;28.80;35.50;;;;;;2252039;61;20538;-60
2023/09/10 07:09:45;0.00;0.00;0.62;0.00;0.00;0.62;20.03;18.03;;;28.80;35.60;;;;;;2252412;61;20418;-64
2023/09/10 07:12:30;0.00;0.00;0.62;0.00;0.00;0.62;18.33;16.60;;;28.80;35.80;;;;;;2252083;61;20777;-62
2023/09/10 07:15:16;0.00;0.00;0.62;0.00;0.00;0.62;17.70;16.10;;;28.80;35.90;;;;;;2252487;61;20390;-60
2023/09/10 07:18:01;0.00;0.00;0.62;0.00;0.00;0.62;17.90;15.90;;;28.80;35.90;;;;;;2254475;61;20398;-60
2023/09/10 07:20:46;0.00;0.00;0.62;0.00;0.00;0.62;16.63;15.23;;;28.80;36.10;;;;;;2252176;61;20771;-56
2023/09/10 07:23:30;0.00;0.00;0.62;0.00;0.00;0.62;14.43;12.97;;;28.70;36.10;;;;;;2252554;61;20761;-62
2023/09/10 07:26:15;0.00;0.00;0.62;0.00;0.00;0.62;14.47;13.07;;;28.80;36.20;;;;;;2252394;61;20920;-69
2023/09/10 07:29:00;0.00;0.00;0.62;0.00;0.00;0.62;15.23;13.73;;;28.70;36.10;;;;;;2251875;61;20451;-61
2023/09/10 07:31:46;0.00;0.00;0.62;0.00;0.00;0.62;17.77;16.07;;;28.70;36.10;;;;;;2252153;61;21028;-60
2023/09/10 07:34:30;0.00;0.00;0.62;0.00;0.00;0.62;14.93;13.40;;;28.70;36.10;;;;;;2251987;61;20509;-61
2023/09/10 07:37:15;0.00;0.00;0.62;0.00;0.00;0.62;16.50;14.93;;;28.70;36.20;;;;;;2264348;58;20853;-61
2023/09/10 07:40:00;0.00;0.00;0.62;0.00;0.00;0.62;15.47;14.17;;;28.70;36.20;;;;;;2252273;61;20790;-56
2023/09/10 07:42:44;0.00;0.00;0.62;0.00;0.00;0.62;11.10;10.10;;;28.80;36.30;;;;;;2251986;61;20417;-58
2023/09/10 07:45:29;0.00;0.00;0.62;0.00;0.00;0.62;11.07;10.07;;;28.70;36.20;;;;;;2254643;61;20410;-62
2023/09/10 07:48:15;0.00;0.00;0.62;0.00;0.00;0.62;10.93;9.93;;;28.80;36.20;;;;;;2250897;61;20446;-58
2023/09/10 07:51:00;0.00;0.00;0.62;0.00;0.00;0.62;10.37;9.40;;;28.80;36.20;;;;;;2251961;61;20390;-61
2023/09/10 07:53:44;0.00;0.00;0.62;0.00;0.00;0.62;11.97;10.80;;;28.80;36.10;;;;;;2251737;61;20415;-59
2023/09/10 07:56:29;0.00;0.00;0.62;0.00;0.00;0.62;12.23;11.10;;;28.90;36.10;;;;;;2251750;61;20398;-60
2023/09/10 07:59:14;0.00;0.00;0.62;0.00;0.00;0.62;15.97;13.70;;;28.90;36.10;;;;;;2252250;61;20425;-61
2023/09/10 08:02:01;0.00;0.00;0.62;0.00;0.00;0.62;16.50;15.00;;;28.90;36.00;;;;;;2252417;61;20417;-61
2023/09/10 08:04:47;0.00;0.00;0.62;0.00;0.00;0.62;17.60;15.87;;;28.90;35.90;;;;;;2251788;61;20463;-61
2023/09/10 08:07:31;0.00;0.00;0.62;0.00;0.00;0.62;13.30;12.10;;;28.90;36.60;;;;;;2251859;61;20449;-58
2023/09/10 08:10:16;0.00;0.00;0.62;0.00;0.00;0.62;13.60;12.40;;;29.00;36.00;;;;;;2252117;61;20414;-60
2023/09/10 08:13:03;0.00;0.00;0.62;0.00;0.00;0.62;13.77;12.50;;;29.00;36.10;;;;;;2251306;61;20370;-61
2023/09/10 08:15:48;0.00;0.00;0.62;0.00;0.00;0.62;10.97;9.97;;;29.00;36.10;;;;;;2248994;61;20371;-57
2023/09/10 08:18:32;0.00;0.00;0.62;0.00;0.00;0.62;13.93;12.63;;;29.00;36.10;;;;;;2251504;61;20443;-57
2023/09/10 08:21:20;0.00;0.00;0.62;0.00;0.00;0.62;11.67;10.67;;;29.00;36.00;;;;;;2251816;61;20397;-62
2023/09/10 08:24:06;0.00;0.00;0.62;0.00;0.00;0.62;12.00;10.90;;;29.10;36.00;;;;;;2252076;61;20443;-58
2023/09/10 08:26:51;0.00;0.00;0.62;0.00;0.00;0.62;14.40;13.00;;;29.10;36.00;;;;;;2251501;61;20429;-58
2023/09/10 08:29:35;0.00;0.00;0.62;0.00;0.00;0.62;14.97;13.57;;;29.10;36.00;;;;;;2251781;61;20921;-60
2023/09/10 08:32:20;0.00;0.00;0.62;0.00;0.00;0.62;12.53;11.40;;;29.10;36.00;;;;;;2251805;61;20447;-60
2023/09/10 08:35:06;0.00;0.00;0.62;0.00;0.00;0.62;11.10;10.10;;;29.20;36.00;;;;;;2252167;61;20425;-60
2023/09/10 08:37:53;0.00;0.00;0.62;0.00;0.00;0.62;12.27;11.03;;;29.20;35.90;;;;;;2252100;61;20412;-57
2023/09/10 08:40:45;0.00;0.00;0.62;0.00;0.00;0.62;14.17;11.17;;;29.20;35.80;;;;;;2252212;61;20379;-60
2023/09/10 08:43:39;0.00;0.00;0.62;0.00;0.00;0.62;11.13;10.03;;;29.30;35.90;;;;;;2252944;61;20386;-62
2023/09/10 08:46:30;0.00;0.00;0.62;0.00;0.00;0.62;10.30;9.40;;;29.30;35.60;;;;;;2252482;61;20522;-56
2023/09/10 08:49:17;0.00;0.00;0.62;0.00;0.00;0.62;11.07;10.00;;;29.30;35.50;;;;;;2251934;61;20988;-62
2023/09/10 08:52:02;0.00;0.00;0.62;0.00;0.00;0.62;11.40;10.30;;;29.30;35.40;;;;;;2253056;61;20422;-56
2023/09/10 08:54:49;0.00;0.00;0.62;0.00;0.00;0.62;9.93;9.03;;;29.30;35.10;;;;;;2253169;61;20363;-59
2023/09/10 08:57:35;0.00;0.00;0.62;0.00;0.00;0.62;9.57;8.77;;;29.40;35.10;;;;;;2252480;61;20409;-60
2023/09/10 09:00:22;0.00;0.00;0.62;0.00;0.00;0.62;9.93;9.03;;;29.40;34.90;;;;;;2252545;61;20386;-62
2023/09/10 09:03:07;0.00;0.00;0.62;0.00;0.00;0.62;9.20;8.50;;;29.40;34.90;;;;;;2252651;61;20948;-60
2023/09/10 09:05:54;0.00;0.00;0.62;0.00;0.00;0.62;9.20;8.13;;;29.40;34.80;;;;;;2252948;61;20398;-60
2023/09/10 09:08:44;0.00;0.00;0.62;0.00;0.00;0.62;9.40;8.53;;;29.50;34.90;;;;;;2252675;61;20367;-62
2023/09/10 09:11:30;0.00;0.00;0.62;0.00;0.00;0.62;9.83;9.00;;;29.50;34.80;;;;;;2252497;61;20395;-61
2023/09/10 09:14:15;0.00;0.00;0.62;0.00;0.00;0.62;9.97;9.13;;;29.50;34.70;;;;;;2252721;61;20382;-59
2023/09/10 09:17:00;0.00;0.00;0.62;0.00;0.00;0.62;8.13;7.47;;;29.50;34.70;;;;;;2252509;61;20441;-60
2023/09/10 09:19:47;0.00;0.00;0.62;0.00;0.00;0.62;11.27;10.17;;;29.50;34.60;;;;;;2252561;61;20437;-58
2023/09/10 09:22:34;0.00;0.00;0.62;0.00;0.00;0.62;10.13;9.23;;;29.60;34.70;;;;;;2252757;61;20398;-60
2023/09/10 09:25:19;0.00;0.00;0.62;0.00;0.00;0.62;8.57;7.87;;;29.60;34.70;;;;;;2252671;61;20370;-58
2023/09/10 09:28:05;0.00;0.00;0.62;0.00;0.00;0.62;9.60;8.70;;;29.60;34.60;;;;;;2252480;61;20390;-62
2023/09/10 09:30:51;0.00;0.00;0.62;0.00;0.00;0.62;10.47;9.50;;;29.60;34.60;;;;;;2252793;61;20792;-61
2023/09/10 09:33:36;0.00;0.00;0.62;0.00;0.00;0.62;9.93;9.00;;;29.70;34.50;;;;;;2252252;61;20422;-61
2023/09/10 09:36:29;0.00;0.00;0.62;0.00;0.00;0.62;10.60;9.60;;;29.70;34.50;;;;;;2252907;61;20426;-58
2023/09/10 09:39:17;0.00;0.00;0.62;0.00;0.00;0.62;9.17;8.47;;;29.70;34.50;;;;;;2252650;61;20363;-59
2023/09/10 09:42:05;0.00;0.00;0.62;0.00;0.00;0.62;9.20;8.40;;;29.70;34.40;;;;;;2252579;61;20780;-59
2023/09/10 09:44:51;0.00;0.00;0.62;0.00;0.00;0.62;9.87;8.80;;;29.80;34.40;;;;;;2252795;61;20371;-62
2023/09/10 09:47:35;0.00;0.00;0.62;0.00;0.00;0.62;9.27;8.53;;;29.80;34.30;;;;;;2252132;61;20526;-59
2023/09/10 09:50:20;0.00;0.00;0.62;0.00;0.00;0.62;8.83;8.13;;;29.80;34.30;;;;;;2252337;61;20925;-57
2023/09/10 09:53:05;0.00;0.00;0.62;0.00;0.00;0.62;9.97;9.13;;;29.80;34.30;;;;;;2252587;61;20375;-60
2023/09/10 09:55:54;0.00;0.00;0.62;0.00;0.00;0.62;10.90;9.57;;;29.90;34.40;;;;;;2252270;61;20386;-61
2023/09/10 09:58:39;0.00;0.00;0.62;0.00;0.00;0.62;9.07;8.30;;;29.90;34.30;;;;;;2252537;61;20471;-56
2023/09/10 10:01:25;0.00;0.00;0.62;0.00;0.00;0.62;9.67;8.77;;;29.90;34.20;;;;;;2252803;61;20824;-57
2023/09/10 10:04:10;0.00;0.00;0.62;0.00;0.00;0.62;9.07;8.27;;;29.90;34.10;;;;;;2252569;61;20897;-62
2023/09/10 10:06:55;0.00;0.00;0.62;0.00;0.00;0.62;9.60;8.80;;;29.90;34.00;;;;;;2252672;61;20609;-60
2023/09/10 10:09:41;0.00;0.00;0.62;0.00;0.00;0.62;9.80;8.80;;;30.00;34.00;;;;;;2252700;61;20662;-58
2023/09/10 10:12:27;0.00;0.00;0.62;0.00;0.00;0.62;9.63;8.73;;;30.00;33.90;;;;;;2252643;61;20398;-60
2023/09/10 10:15:13;0.00;0.00;0.62;0.00;0.00;0.62;9.47;8.67;;;30.00;33.90;;;;;;2252920;61;20933;-62
2023/09/10 10:18:01;0.00;0.00;0.62;0.00;0.00;0.62;11.40;8.00;;;30.00;33.80;;;;;;2251958;61;20394;-58
2023/09/10 10:20:47;0.00;0.00;0.62;0.00;0.00;0.62;10.40;9.50;;;30.00;33.90;;;;;;2252802;61;20425;-61
2023/09/10 10:23:33;0.00;0.00;0.62;0.00;0.00;0.62;9.33;8.43;;;30.10;33.90;;;;;;2252781;61;20359;-56
2023/09/10 10:26:18;0.00;0.00;0.62;0.00;0.00;0.62;9.70;8.90;;;30.10;33.80;;;;;;2252514;61;20436;-62
2023/09/10 10:29:03;0.00;0.00;0.62;0.00;0.00;0.62;10.17;9.27;;;30.10;33.80;;;;;;2252419;61;20383;-61
2023/09/10 10:31:55;0.00;0.00;0.62;0.00;0.00;0.62;10.57;9.67;;;30.10;33.80;;;;;;2252334;61;20483;-60
2023/09/10 10:34:53;0.00;0.00;0.62;0.00;0.00;0.62;9.53;8.63;;;30.10;33.70;;;;;;2252555;61;20358;-62
2023/09/10 10:37:47;0.00;0.00;0.62;0.00;0.00;0.62;8.87;8.17;;;30.20;33.70;;;;;;2252459;61;20379;-57
2023/09/10 10:40:37;0.00;0.00;0.62;0.00;0.00;0.62;10.07;7.70;;;30.10;33.50;;;;;;2251652;61;20358;-62
2023/09/10 10:43:29;0.00;0.00;0.62;0.00;0.00;0.62;9.20;8.30;;;30.20;33.60;;;;;;2252557;61;20453;-62
2023/09/10 10:46:15;0.00;0.00;0.62;0.00;0.00;0.62;9.33;8.53;;;30.20;33.60;;;;;;2252510;61;20419;-62